createdAt,value
2023-05-09T00:00:11.241Z,99565.53
2023-05-09T00:05:16.786Z,99555.72
2023-05-09T00:10:24.585Z,99550.94
2023-05-09T00:15:30.679Z,99552.28
2023-05-09T00:20:36.948Z,99553.09
2023-05-09T00:25:44.680Z,99542.47
2023-05-09T00:30:49.809Z,99543.25
2023-05-09T00:35:55.106Z,99533.44
2023-05-09T00:41:04.773Z,99535.81
2023-05-09T00:46:10.417Z,99534.25
2023-05-09T00:51:17.136Z,99526.81
2023-05-09T00:56:25.082Z,99521.25
2023-05-09T01:01:30.362Z,99518.06
2023-05-09T01:06:41.948Z,99516.22
2023-05-09T01:11:56.864Z,99515.13
2023-05-09T01:17:09.186Z,99513.53
2023-05-09T01:22:17.755Z,99501.06
2023-05-09T01:27:38.615Z,99493.91
2023-05-09T01:32:46.786Z,99496.84
2023-05-09T01:37:53.188Z,99489.94
2023-05-09T01:43:02.038Z,99494.47
2023-05-09T01:48:11.622Z,99489.47
2023-05-09T01:53:20.819Z,99486.25
2023-05-09T01:58:28.692Z,99476.75
2023-05-09T02:03:37.733Z,99471.94
2023-05-09T02:08:43.615Z,99474.84
2023-05-09T02:13:48.949Z,99477.78
2023-05-09T02:18:56.752Z,99468.22
2023-05-09T02:24:02.018Z,99461.88
2023-05-09T02:29:10.091Z,99467.69
2023-05-09T02:34:19.565Z,99463.47
2023-05-09T02:39:24.680Z,99466.63
2023-05-09T02:44:29.895Z,99460.25
2023-05-09T02:49:38.157Z,99458.16
2023-05-09T02:54:43.737Z,99460.78
2023-05-09T02:59:48.880Z,99463.94
2023-05-09T03:04:56.898Z,99459.72
2023-05-09T03:10:02.061Z,99456.53
2023-05-09T03:15:10.488Z,99459.66
2023-05-09T03:20:23.379Z,99458.63
2023-05-09T03:25:29.096Z,99459.63
2023-05-09T03:30:34.236Z,99440.63
2023-05-09T03:35:42.866Z,99449.38
2023-05-09T03:40:50.874Z,99450.97
2023-05-09T03:45:56.863Z,99442.19
2023-05-09T03:51:07.276Z,99444.84
2023-05-09T03:56:16.669Z,99437.41
2023-05-09T04:01:27.657Z,99444.06
2023-05-09T04:06:39.807Z,99442.75
2023-05-09T04:11:47.345Z,99441.13
2023-05-09T04:16:54.012Z,99435.34
2023-05-09T04:22:02.427Z,99440.13
2023-05-09T04:27:08.227Z,99434.84
2023-05-09T04:32:15.275Z,99426.34
2023-05-09T04:37:23.577Z,99431.06
2023-05-09T04:42:29.182Z,99424.66
2023-05-09T04:47:34.712Z,99425.16
2023-05-09T04:52:42.637Z,99421.84
2023-05-09T04:57:47.903Z,99430.34
2023-05-09T05:02:53.130Z,99423.88
2023-05-09T05:08:01.122Z,99421.78
2023-05-09T05:13:11.752Z,99412.91
2023-05-09T05:18:20.924Z,99398.50
2023-05-09T05:23:37.157Z,99408.63
2023-05-09T05:28:55.720Z,99400.59
2023-05-09T05:34:03.323Z,99401.19
2023-05-09T05:39:13.095Z,99409.31
2023-05-09T05:44:21.448Z,99406.88
2023-05-09T05:49:28.666Z,99393.97
2023-05-09T05:54:40.549Z,99406.94
2023-05-09T05:59:46.210Z,99402.59
2023-05-09T06:04:53.289Z,99392.59
2023-05-09T06:10:02.282Z,99376.84
2023-05-09T06:15:11.902Z,99372.59
2023-05-09T06:20:20.668Z,99370.63
2023-05-09T06:25:30.939Z,99362.31
2023-05-09T06:30:41.146Z,99362.78
2023-05-09T06:35:57.461Z,99354.38
2023-05-09T06:41:09.492Z,99341.94
2023-05-09T06:46:14.877Z,99340.56
2023-05-09T06:51:19.905Z,99343.13
2023-05-09T06:57:00.651Z,99332.47
2023-05-09T07:02:12.849Z,99335.53
2023-05-09T07:07:17.913Z,99314.34
2023-05-09T07:12:25.608Z,99321.97
2023-05-09T07:17:31.057Z,99303.84
2023-05-09T07:22:43.717Z,99303.03
2023-05-09T07:27:51.865Z,99295.75
2023-05-09T07:32:57.125Z,99295.44
2023-05-09T07:38:06.482Z,99300.63
2023-05-09T07:43:16.102Z,99287.88
2023-05-09T07:48:21.582Z,99276.81
2023-05-09T07:53:26.996Z,99272.38
2023-05-09T07:58:37.728Z,99257.72
2023-05-09T08:03:43.200Z,99240.47
2023-05-09T08:08:48.638Z,99238.19
2023-05-09T08:14:01.166Z,99235.25
2023-05-09T08:19:06.398Z,99244.16
2023-05-09T08:24:13.942Z,99248.94
2023-05-09T08:29:21.557Z,99240.31
2023-05-09T08:34:27.294Z,99232.44
2023-05-09T08:39:35.074Z,99239.41
2023-05-09T08:44:44.640Z,99223.59
2023-05-09T08:49:51.010Z,99221.53
2023-05-09T08:54:56.824Z,99218.22
2023-05-09T09:00:13.145Z,99206.38
2023-05-09T09:05:34.600Z,99202.13
2023-05-09T09:10:48.508Z,99195.56
2023-05-09T09:15:58.319Z,99195.06
2023-05-09T09:21:10.703Z,99194.38
2023-05-09T09:26:16.902Z,99199.53
2023-05-09T09:31:29.434Z,99186.25
2023-05-09T09:36:36.925Z,99176.34
2023-05-09T09:41:46.942Z,99188.25
2023-05-09T09:46:56.626Z,99174.81
2023-05-09T09:52:02.523Z,99182.44
2023-05-09T09:57:09.545Z,99165.56
2023-05-09T10:02:18.770Z,99155.22
2023-05-09T10:07:26.503Z,99157.19
2023-05-09T10:12:34.555Z,99150.50
2023-05-09T10:17:44.553Z,99154.03
2023-05-09T10:22:51.389Z,99143.69
2023-05-09T10:28:01.812Z,99134.09
2023-05-09T10:33:12.641Z,99117.72
2023-05-09T10:38:22.683Z,99127.78
2023-05-09T10:43:27.731Z,99115.09
2023-05-09T10:48:36.591Z,99108.78
2023-05-09T10:53:46.307Z,99093.25
2023-05-09T10:58:51.945Z,99079.19
2023-05-09T11:04:01.618Z,99087.16
2023-05-09T11:09:30.768Z,99075.19
2023-05-09T11:14:40.983Z,99087.00
2023-05-09T11:20:07.163Z,99058.91
2023-05-09T11:25:17.193Z,99052.59
2023-05-09T11:30:23.826Z,99038.41
2023-05-09T11:35:31.796Z,99032.03
2023-05-09T11:40:41.092Z,99021.31
2023-05-09T11:45:50.055Z,99013.25
2023-05-09T11:50:57.861Z,99007.84
2023-05-09T11:56:06.527Z,98997.91
2023-05-09T12:01:13.403Z,98979.53
2023-05-09T12:06:23.304Z,98985.19
2023-05-09T12:11:28.814Z,98963.59
2023-05-09T12:16:33.924Z,98964.91
2023-05-09T12:21:43.470Z,98945.47
2023-05-09T12:26:48.911Z,98960.59
2023-05-09T12:31:56.100Z,98955.19
2023-05-09T12:37:08.297Z,98957.09
2023-05-09T12:42:18.074Z,98942.31
2023-05-09T12:47:25.765Z,98935.34
2023-05-09T12:52:50.730Z,98925.47
2023-05-09T12:58:06.306Z,98917.88
2023-05-09T13:03:25.559Z,98917.94
2023-05-09T13:08:34.922Z,98913.19
2023-05-09T13:13:41.823Z,98913.47
2023-05-09T13:18:49.346Z,98905.97
2023-05-09T13:24:04.662Z,98889.56
2023-05-09T13:29:09.776Z,98871.16
2023-05-09T13:34:14.725Z,98858.25
2023-05-09T13:39:26.998Z,98863.28
2023-05-09T13:44:33.536Z,98829.03
2023-05-09T13:49:38.945Z,98827.69
2023-05-09T13:54:46.834Z,98833.34
2023-05-09T13:59:52.194Z,98817.41
2023-05-09T14:04:59.345Z,98809.84
2023-05-09T14:10:11.841Z,98806.03
2023-05-09T14:15:21.880Z,98795.25
2023-05-09T14:20:27.552Z,98788.38
2023-05-09T14:25:35.835Z,98779.34
2023-05-09T14:30:40.997Z,98765.91
2023-05-09T14:35:46.235Z,98762.44
2023-05-09T14:40:53.848Z,98752.94
2023-05-09T14:45:59.140Z,98750.97
2023-05-09T14:51:06.714Z,98752.50
2023-05-09T14:56:14.447Z,98745.09
2023-05-09T15:01:19.909Z,98725.22
2023-05-09T15:06:25.470Z,98736.22
2023-05-09T15:11:46.743Z,98728.41
2023-05-09T15:16:57.683Z,98710.53
2023-05-09T15:22:09.727Z,98705.28
2023-05-09T15:27:19.375Z,98710.53
2023-05-09T15:32:24.429Z,98695.19
2023-05-09T15:37:29.849Z,98693.28
2023-05-09T15:42:41.749Z,98689.13
2023-05-09T15:47:46.904Z,98688.69
2023-05-09T15:52:52.527Z,98677.84
2023-05-09T15:58:00.502Z,98682.84
2023-05-09T16:03:05.862Z,98681.31
2023-05-09T16:08:12.657Z,98668.25
2023-05-09T16:13:20.994Z,98669.69
2023-05-09T16:18:26.464Z,98665.78
2023-05-09T16:23:32.814Z,98651.59
2023-05-09T16:28:41.704Z,98654.00
2023-05-09T16:33:47.307Z,98651.66
2023-05-09T16:38:52.356Z,98650.59
2023-05-09T16:44:00.432Z,98650.94
2023-05-09T16:49:05.426Z,98633.31
2023-05-09T16:54:10.776Z,98635.13
2023-05-09T16:59:18.871Z,98629.53
2023-05-09T17:04:27.090Z,98634.25
2023-05-09T17:09:32.116Z,98625.72
2023-05-09T17:14:43.023Z,98615.47
2023-05-09T17:19:48.728Z,98605.13
2023-05-09T17:24:53.921Z,98608.41
2023-05-09T17:30:01.715Z,98588.41
2023-05-09T17:35:07.364Z,98589.72
2023-05-09T17:40:13.506Z,98588.09
2023-05-09T17:45:21.687Z,98589.97
2023-05-09T17:50:27.144Z,98590.91
2023-05-09T17:55:32.310Z,98582.75
2023-05-09T18:00:40.037Z,98586.03
2023-05-09T18:05:45.847Z,98584.13
2023-05-09T18:10:50.969Z,98572.03
2023-05-09T18:16:00.386Z,98572.94
2023-05-09T18:21:08.146Z,98571.41
2023-05-09T18:26:13.548Z,98576.72
2023-05-09T18:31:22.692Z,98569.59
2023-05-09T18:36:30.168Z,98564.81
2023-05-09T18:41:37.952Z,98578.69
2023-05-09T18:46:46.179Z,98570.97
2023-05-09T18:51:51.781Z,98581.59
2023-05-09T18:56:57.340Z,98585.06
2023-05-09T19:02:06.283Z,98581.13
2023-05-09T19:07:13.538Z,98570.28
2023-05-09T19:12:22.201Z,98567.81
2023-05-09T19:17:35.591Z,98571.47
2023-05-09T19:22:46.902Z,98560.06
2023-05-09T19:27:53.384Z,98550.91
2023-05-09T19:33:02.234Z,98548.97
2023-05-09T19:38:11.240Z,98546.69
2023-05-09T19:43:17.136Z,98540.41
2023-05-09T19:48:27.877Z,98544.66
2023-05-09T19:53:33.507Z,98538.50
2023-05-09T19:58:40.428Z,98537.22
2023-05-09T20:03:52.413Z,98529.91
2023-05-09T20:08:58.613Z,98542.16
2023-05-09T20:14:06.442Z,98537.97
2023-05-09T20:19:17.809Z,98530.22
2023-05-09T20:24:23.382Z,98530.69
2023-05-09T20:29:30.793Z,98521.97
2023-05-09T20:34:39.852Z,98513.22
2023-05-09T20:39:45.320Z,98509.94
2023-05-09T20:44:51.745Z,98501.59
2023-05-09T20:49:59.602Z,98496.47
2023-05-09T20:55:05.578Z,98497.66
2023-05-09T21:00:15.359Z,98485.53
2023-05-09T21:05:23.401Z,98475.91
2023-05-09T21:10:28.388Z,98484.63
2023-05-09T21:15:35.948Z,98470.63
2023-05-09T21:20:45.657Z,98466.38
2023-05-09T21:25:53.064Z,98457.91
2023-05-09T21:31:00.860Z,98449.06
2023-05-09T21:36:08.932Z,98447.63
2023-05-09T21:41:14.302Z,98447.94
2023-05-09T21:46:19.308Z,98440.69
2023-05-09T21:51:27.463Z,98436.25
2023-05-09T21:56:32.568Z,98435.25
2023-05-09T22:01:37.807Z,98429.28
2023-05-09T22:06:45.592Z,98426.34
2023-05-09T22:11:52.023Z,98429.22
2023-05-09T22:16:58.487Z,98420.63
2023-05-09T22:22:06.470Z,98421.47
2023-05-09T22:27:11.694Z,98418.25
2023-05-09T22:32:17.471Z,98414.34
2023-05-09T22:37:27.358Z,98406.66
2023-05-09T22:42:34.536Z,98407.06
2023-05-09T22:47:39.646Z,98394.53
2023-05-09T22:52:57.156Z,98394.88
2023-05-09T22:58:05.982Z,98388.47
2023-05-09T23:03:11.105Z,98384.00
2023-05-09T23:08:16.468Z,98375.53
2023-05-09T23:13:25.154Z,98374.31
2023-05-09T23:18:30.297Z,98356.09
2023-05-09T23:23:35.375Z,98354.88
2023-05-09T23:28:44.351Z,98354.75
2023-05-09T23:33:51.343Z,98352.53
2023-05-09T23:38:56.870Z,98352.59
2023-05-09T23:44:05.101Z,98339.69
2023-05-09T23:49:16.507Z,98343.28
2023-05-09T23:54:21.666Z,98335.19
2023-05-09T23:59:32.073Z,98317.34
